sensor_id;sensor_type;location;lat;lon;timestamp;pressure;altitude;pressure_sealevel;temperature;humidity
18500;BME280;9379;52.134;11.576;2023-02-13T00:00:49;103184.66;;;11.67;92.44
18500;BME280;9379;52.134;11.576;2023-02-13T00:03:16;103183.91;;;11.83;91.74
18500;BME280;9379;52.134;11.576;2023-02-13T00:05:43;103172.59;;;11.78;91.30
18500;BME280;9379;52.134;11.576;2023-02-13T00:08:09;103182.19;;;11.82;91.51
18500;BME280;9379;52.134;11.576;2023-02-13T00:10:36;103182.19;;;11.82;91.70
18500;BME280;9379;52.134;11.576;2023-02-13T00:13:03;103173.53;;;11.77;91.72
18500;BME280;9379;52.134;11.576;2023-02-13T00:15:30;103182.19;;;11.82;91.49
18500;BME280;9379;52.134;11.576;2023-02-13T00:17:58;103181.44;;;11.78;91.89
18500;BME280;9379;52.134;11.576;2023-02-13T00:20:25;103181.09;;;11.86;91.40
18500;BME280;9379;52.134;11.576;2023-02-13T00:22:51;103179.88;;;11.91;91.21
18500;BME280;9379;52.134;11.576;2023-02-13T00:25:18;103182.25;;;11.97;91.06
18500;BME280;9379;52.134;11.576;2023-02-13T00:27:45;103159.75;;;11.68;91.16
18500;BME280;9379;52.134;11.576;2023-02-13T00:30:13;103179.75;;;11.60;91.82
18500;BME280;9379;52.134;11.576;2023-02-13T00:32:40;103183.50;;;11.73;92.22
18500;BME280;9379;52.134;11.576;2023-02-13T00:35:08;103179.25;;;11.69;91.98
18500;BME280;9379;52.134;11.576;2023-02-13T00:37:34;103178.63;;;11.64;92.18
18500;BME280;9379;52.134;11.576;2023-02-13T00:40:01;103170.69;;;11.81;91.67
18500;BME280;9379;52.134;11.576;2023-02-13T00:42:28;103173.25;;;11.83;91.31
18500;BME280;9379;52.134;11.576;2023-02-13T00:44:55;103172.53;;;11.62;91.90
18500;BME280;9379;52.134;11.576;2023-02-13T00:47:22;103171.13;;;11.72;91.95
18500;BME280;9379;52.134;11.576;2023-02-13T00:49:49;103174.41;;;11.77;91.35
18500;BME280;9379;52.134;11.576;2023-02-13T00:52:17;103161.25;;;11.74;91.28
18500;BME280;9379;52.134;11.576;2023-02-13T00:54:44;103174.41;;;11.77;91.23
18500;BME280;9379;52.134;11.576;2023-02-13T00:57:12;103182.31;;;11.79;91.47
18500;BME280;9379;52.134;11.576;2023-02-13T00:59:38;103175.69;;;11.70;91.35
18500;BME280;9379;52.134;11.576;2023-02-13T01:02:05;103170.25;;;11.72;91.39
18500;BME280;9379;52.134;11.576;2023-02-13T01:04:32;103171.91;;;11.74;91.39
18500;BME280;9379;52.134;11.576;2023-02-13T01:06:59;103171.59;;;11.80;91.33
18500;BME280;9379;52.134;11.576;2023-02-13T01:09:27;103175.34;;;11.76;91.24
18500;BME280;9379;52.134;11.576;2023-02-13T01:11:53;103163.22;;;11.53;92.48
18500;BME280;9379;52.134;11.576;2023-02-13T01:14:20;103154.19;;;11.21;92.61
18500;BME280;9379;52.134;11.576;2023-02-13T01:16:47;103147.63;;;11.28;93.31
18500;BME280;9379;52.134;11.576;2023-02-13T01:19:14;103165.94;;;11.34;93.32
18500;BME280;9379;52.134;11.576;2023-02-13T01:21:41;103162.69;;;11.47;92.57
18500;BME280;9379;52.134;11.576;2023-02-13T01:24:08;103170.66;;;11.47;92.81
18500;BME280;9379;52.134;11.576;2023-02-13T01:26:36;103166.59;;;11.39;92.88
18500;BME280;9379;52.134;11.576;2023-02-13T01:29:03;103167.91;;;10.77;96.17
18500;BME280;9379;52.134;11.576;2023-02-13T01:31:30;103163.38;;;10.42;98.41
18500;BME280;9379;52.134;11.576;2023-02-13T01:33:57;103162.97;;;10.87;96.65
18500;BME280;9379;52.134;11.576;2023-02-13T01:36:25;103168.44;;;11.20;95.00
18500;BME280;9379;52.134;11.576;2023-02-13T01:38:53;103171.16;;;11.19;94.50
18500;BME280;9379;52.134;11.576;2023-02-13T01:41:20;103140.22;;;10.99;95.00
18500;BME280;9379;52.134;11.576;2023-02-13T01:43:50;103157.94;;;11.34;93.74
18500;BME280;9379;52.134;11.576;2023-02-13T01:46:22;103153.56;;;11.16;94.18
18500;BME280;9379;52.134;11.576;2023-02-13T01:48:54;103150.81;;;11.00;95.22
18500;BME280;9379;52.134;11.576;2023-02-13T01:51:24;103147.06;;;11.22;94.10
18500;BME280;9379;52.134;11.576;2023-02-13T01:53:56;103153.72;;;11.30;93.71
18500;BME280;9379;52.134;11.576;2023-02-13T01:56:26;103147.69;;;11.27;93.52
18500;BME280;9379;52.134;11.576;2023-02-13T01:58:59;103146.44;;;11.51;92.61
18500;BME280;9379;52.134;11.576;2023-02-13T02:01:28;103147.78;;;11.25;93.71
18500;BME280;9379;52.134;11.576;2023-02-13T02:04:00;103140.78;;;11.23;93.62
18500;BME280;9379;52.134;11.576;2023-02-13T02:06:33;103145.19;;;11.41;92.86
18500;BME280;9379;52.134;11.576;2023-02-13T02:09:04;103138.97;;;11.06;93.57
18500;BME280;9379;52.134;11.576;2023-02-13T02:11:36;103148.94;;;11.20;94.24
18500;BME280;9379;52.134;11.576;2023-02-13T02:14:08;103148.72;;;11.24;93.75
18500;BME280;9379;52.134;11.576;2023-02-13T02:16:34;103122.47;;;11.34;92.95
18500;BME280;9379;52.134;11.576;2023-02-13T02:19:04;103147.28;;;11.17;93.48
18500;BME280;9379;52.134;11.576;2023-02-13T02:22:00;103140.19;;;11.35;92.66
18500;BME280;9379;52.134;11.576;2023-02-13T02:24:53;103132.22;;;10.99;94.33
18500;BME280;9379;52.134;11.576;2023-02-13T02:33:36;103134.75;;;11.19;93.54
18500;BME280;9379;52.134;11.576;2023-02-13T02:36:19;103137.44;;;11.36;92.49
18500;BME280;9379;52.134;11.576;2023-02-13T02:39:00;103129.53;;;11.18;93.29
18500;BME280;9379;52.134;11.576;2023-02-13T02:41:36;103109.78;;;11.22;92.21
18500;BME280;9379;52.134;11.576;2023-02-13T02:44:17;103133.19;;;11.32;92.39
18500;BME280;9379;52.134;11.576;2023-02-13T02:46:55;103134.19;;;10.95;93.76
18500;BME280;9379;52.134;11.576;2023-02-13T02:49:47;103140.25;;;11.16;93.17
18500;BME280;9379;52.134;11.576;2023-02-13T02:52:30;103144.72;;;10.79;94.73
18500;BME280;9379;52.134;11.576;2023-02-13T02:55:04;103139.84;;;11.06;94.29
18500;BME280;9379;52.134;11.576;2023-02-13T02:57:33;103140.50;;;10.38;96.94
18500;BME280;9379;52.134;11.576;2023-02-13T03:00:16;103123.94;;;10.12;98.70
18500;BME280;9379;52.134;11.576;2023-02-13T03:03:00;103139.06;;;10.49;97.43
18500;BME280;9379;52.134;11.576;2023-02-13T03:05:47;103122.38;;;10.08;98.72
18500;BME280;9379;52.134;11.576;2023-02-13T03:08:33;103109.13;;;10.46;97.26
18500;BME280;9379;52.134;11.576;2023-02-13T03:11:17;103114.72;;;10.76;95.43
18500;BME280;9379;52.134;11.576;2023-02-13T03:14:03;103121.03;;;10.92;94.89
18500;BME280;9379;52.134;11.576;2023-02-13T03:16:32;103137.34;;;11.03;94.31
18500;BME280;9379;52.134;11.576;2023-02-13T03:19:23;103126.72;;;11.38;92.93
18500;BME280;9379;52.134;11.576;2023-02-13T03:22:23;103137.44;;;11.19;93.03
18500;BME280;9379;52.134;11.576;2023-02-13T03:25:06;103134.16;;;11.14;93.47
18500;BME280;9379;52.134;11.576;2023-02-13T03:27:42;103140.00;;;11.21;93.12
18500;BME280;9379;52.134;11.576;2023-02-13T03:30:35;103130.25;;;11.38;92.67
18500;BME280;9379;52.134;11.576;2023-02-13T03:33:17;103132.03;;;11.55;91.83
18500;BME280;9379;52.134;11.576;2023-02-13T03:35:52;103138.84;;;11.44;91.57
18500;BME280;9379;52.134;11.576;2023-02-13T03:38:46;103134.84;;;10.45;96.53
18500;BME280;9379;52.134;11.576;2023-02-13T03:41:19;103140.78;;;10.69;95.46
18500;BME280;9379;52.134;11.576;2023-02-13T03:43:57;103134.28;;;10.75;96.19
18500;BME280;9379;52.134;11.576;2023-02-13T03:46:30;103139.38;;;10.43;97.15
18500;BME280;9379;52.134;11.576;2023-02-13T03:49:01;103139.88;;;10.33;98.75
18500;BME280;9379;52.134;11.576;2023-02-13T03:51:50;103145.47;;;9.87;100.00
18500;BME280;9379;52.134;11.576;2023-02-13T03:54:24;103139.34;;;9.85;100.00
18500;BME280;9379;52.134;11.576;2023-02-13T03:57:10;103148.50;;;10.17;100.00
18500;BME280;9379;52.134;11.576;2023-02-13T04:00:00;103135.22;;;10.17;100.00
18500;BME280;9379;52.134;11.576;2023-02-13T04:02:31;103141.78;;;9.90;100.00
18500;BME280;9379;52.134;11.576;2023-02-13T04:05:05;103127.41;;;9.75;100.00
18500;BME280;9379;52.134;11.576;2023-02-13T04:07:34;103136.81;;;9.82;100.00
18500;BME280;9379;52.134;11.576;2023-02-13T04:10:05;103144.34;;;10.12;99.84
18500;BME280;9379;52.134;11.576;2023-02-13T04:12:37;103139.28;;;9.46;100.00
18500;BME280;9379;52.134;11.576;2023-02-13T04:15:11;103120.09;;;9.80;100.00
18500;BME280;9379;52.134;11.576;2023-02-13T04:17:44;103148.78;;;9.72;100.00
18500;BME280;9379;52.134;11.576;2023-02-13T04:20:12;103147.25;;;9.46;100.00
18500;BME280;9379;52.134;11.576;2023-02-13T04:22:42;103141.41;;;9.58;100.00
18500;BME280;9379;52.134;11.576;2023-02-13T04:25:12;103147.19;;;9.68;100.00
18500;BME280;9379;52.134;11.576;2023-02-13T04:27:41;103139.16;;;9.70;100.00
18500;BME280;9379;52.134;11.576;2023-02-13T04:30:08;103147.56;;;10.18;99.99
18500;BME280;9379;52.134;11.576;2023-02-13T04:32:35;103143.97;;;10.59;97.77
18500;BME280;9379;52.134;11.576;2023-02-13T04:35:02;103143.94;;;10.40;98.68
18500;BME280;9379;52.134;11.576;2023-02-13T04:40:38;103133.75;;;10.68;96.32
18500;BME280;9379;52.134;11.576;2023-02-13T04:43:05;103131.44;;;10.79;96.63
18500;BME280;9379;52.134;11.576;2023-02-13T04:45:41;103139.50;;;10.78;95.73
18500;BME280;9379;52.134;11.576;2023-02-13T04:48:08;103138.06;;;10.52;97.09
18500;BME280;9379;52.134;11.576;2023-02-13T04:50:34;103133.25;;;10.96;95.50
18500;BME280;9379;52.134;11.576;2023-02-13T04:53:01;103138.97;;;11.06;94.39
18500;BME280;9379;52.134;11.576;2023-02-13T04:55:28;103133.94;;;10.82;94.93
18500;BME280;9379;52.134;11.576;2023-02-13T05:00:38;103130.78;;;11.28;92.93
18500;BME280;9379;52.134;11.576;2023-02-13T05:03:06;103122.53;;;10.98;93.29
18500;BME280;9379;52.134;11.576;2023-02-13T05:05:34;103115.88;;;10.89;94.25
18500;BME280;9379;52.134;11.576;2023-02-13T05:08:01;103126.53;;;11.06;93.15
18500;BME280;9379;52.134;11.576;2023-02-13T05:10:28;103109.94;;;11.19;92.52
18500;BME280;9379;52.134;11.576;2023-02-13T05:12:55;103138.81;;;10.92;94.36
18500;BME280;9379;52.134;11.576;2023-02-13T05:15:22;103137.03;;;10.73;94.56
18500;BME280;9379;52.134;11.576;2023-02-13T05:17:50;103134.69;;;10.48;95.60
18500;BME280;9379;52.134;11.576;2023-02-13T05:20:18;103131.22;;;10.28;97.36
18500;BME280;9379;52.134;11.576;2023-02-13T05:22:45;103142.38;;;10.36;97.14
18500;BME280;9379;52.134;11.576;2023-02-13T05:25:31;103137.13;;;9.95;99.28
18500;BME280;9379;52.134;11.576;2023-02-13T05:27:58;103131.00;;;10.51;97.53
18500;BME280;9379;52.134;11.576;2023-02-13T05:30:25;103131.13;;;10.31;96.27
18500;BME280;9379;52.134;11.576;2023-02-13T05:32:53;103132.81;;;10.50;96.49
18500;BME280;9379;52.134;11.576;2023-02-13T05:35:20;103135.56;;;10.85;95.39
18500;BME280;9379;52.134;11.576;2023-02-13T05:37:48;103130.75;;;11.10;93.26
18500;BME280;9379;52.134;11.576;2023-02-13T05:40:15;103120.06;;;11.12;92.14
18500;BME280;9379;52.134;11.576;2023-02-13T05:42:42;103108.38;;;11.15;92.08
18500;BME280;9379;52.134;11.576;2023-02-13T05:45:09;103122.72;;;11.12;91.96
18500;BME280;9379;52.134;11.576;2023-02-13T05:47:36;103119.41;;;10.90;93.95
18500;BME280;9379;52.134;11.576;2023-02-13T05:50:09;103115.75;;;10.73;94.31
18500;BME280;9379;52.134;11.576;2023-02-13T05:52:36;103125.25;;;10.79;94.59
18500;BME280;9379;52.134;11.576;2023-02-13T05:55:03;103126.28;;;10.94;94.36
18500;BME280;9379;52.134;11.576;2023-02-13T05:57:30;103114.16;;;11.05;92.62
18500;BME280;9379;52.134;11.576;2023-02-13T05:59:57;103127.09;;;11.13;91.86
18500;BME280;9379;52.134;11.576;2023-02-13T06:02:24;103114.66;;;11.14;91.77
18500;BME280;9379;52.134;11.576;2023-02-13T06:04:51;103134.28;;;11.11;91.54
18500;BME280;9379;52.134;11.576;2023-02-13T06:07:22;103127.88;;;10.43;94.21
18500;BME280;9379;52.134;11.576;2023-02-13T06:09:52;103134.97;;;10.61;94.76
18500;BME280;9379;52.134;11.576;2023-02-13T06:12:18;103137.66;;;10.03;97.32
18500;BME280;9379;52.134;11.576;2023-02-13T06:14:45;103134.19;;;10.21;96.82
18500;BME280;9379;52.134;11.576;2023-02-13T06:17:12;103136.81;;;9.82;98.44
18500;BME280;9379;52.134;11.576;2023-02-13T06:19:39;103134.91;;;9.65;99.58
18500;BME280;9379;52.134;11.576;2023-02-13T06:22:06;103150.47;;;9.93;98.30
18500;BME280;9379;52.134;11.576;2023-02-13T06:24:34;103116.84;;;10.50;95.36
18500;BME280;9379;52.134;11.576;2023-02-13T06:27:03;103120.84;;;9.63;98.01
18500;BME280;9379;52.134;11.576;2023-02-13T06:29:33;103107.78;;;9.98;97.63
18500;BME280;9379;52.134;11.576;2023-02-13T06:32:00;103134.53;;;9.54;99.02
18500;BME280;9379;52.134;11.576;2023-02-13T06:34:27;103129.31;;;9.72;98.22
18500;BME280;9379;52.134;11.576;2023-02-13T06:36:54;103141.63;;;9.54;98.66
18500;BME280;9379;52.134;11.576;2023-02-13T06:39:21;103151.88;;;9.82;98.24
18500;BME280;9379;52.134;11.576;2023-02-13T06:41:49;103152.41;;;9.90;97.66
18500;BME280;9379;52.134;11.576;2023-02-13T06:44:16;103146.75;;;10.37;95.39
18500;BME280;9379;52.134;11.576;2023-02-13T06:46:43;103143.56;;;10.10;95.66
18500;BME280;9379;52.134;11.576;2023-02-13T06:49:10;103152.91;;;9.39;98.59
18500;BME280;9379;52.134;11.576;2023-02-13T06:51:37;103142.94;;;9.44;99.26
18500;BME280;9379;52.134;11.576;2023-02-13T06:54:04;103153.97;;;9.75;97.87
18500;BME280;9379;52.134;11.576;2023-02-13T06:56:30;103158.69;;;10.47;94.86
18500;BME280;9379;52.134;11.576;2023-02-13T06:58:59;103162.50;;;9.82;96.90
18500;BME280;9379;52.134;11.576;2023-02-13T07:01:26;103171.22;;;10.45;94.46
18500;BME280;9379;52.134;11.576;2023-02-13T07:03:53;103163.88;;;10.69;93.28
18500;BME280;9379;52.134;11.576;2023-02-13T07:06:20;103160.69;;;10.23;94.39
18500;BME280;9379;52.134;11.576;2023-02-13T07:08:47;103174.44;;;10.12;95.51
18500;BME280;9379;52.134;11.576;2023-02-13T07:11:20;103174.69;;;10.27;94.42
18500;BME280;9379;52.134;11.576;2023-02-13T07:13:47;103176.31;;;10.10;94.57
18500;BME280;9379;52.134;11.576;2023-02-13T07:16:16;103177.22;;;10.30;94.05
18500;BME280;9379;52.134;11.576;2023-02-13T07:18:43;103182.03;;;9.81;96.16
18500;BME280;9379;52.134;11.576;2023-02-13T07:21:10;103165.22;;;10.40;94.33
18500;BME280;9379;52.134;11.576;2023-02-13T07:23:37;103173.13;;;10.60;92.88
18500;BME280;9379;52.134;11.576;2023-02-13T07:26:04;103180.16;;;10.03;94.45
18500;BME280;9379;52.134;11.576;2023-02-13T07:28:31;103171.41;;;9.81;96.11
18500;BME280;9379;52.134;11.576;2023-02-13T07:31:02;103177.66;;;10.00;95.62
18500;BME280;9379;52.134;11.576;2023-02-13T07:33:31;103180.94;;;10.26;94.68
18500;BME280;9379;52.134;11.576;2023-02-13T07:35:58;103180.72;;;9.71;96.39
18500;BME280;9379;52.134;11.576;2023-02-13T07:38:27;103182.66;;;10.06;94.29
18500;BME280;9379;52.134;11.576;2023-02-13T07:40:57;103188.22;;;10.22;94.84
18500;BME280;9379;52.134;11.576;2023-02-13T07:43:24;103187.88;;;9.69;96.01
18500;BME280;9379;52.134;11.576;2023-02-13T07:45:51;103180.31;;;9.59;96.86
18500;BME280;9379;52.134;11.576;2023-02-13T07:48:20;103176.34;;;9.49;96.91
18500;BME280;9379;52.134;11.576;2023-02-13T07:50:49;103176.53;;;9.45;97.99
18500;BME280;9379;52.134;11.576;2023-02-13T07:53:16;103182.03;;;10.01;95.22
18500;BME280;9379;52.134;11.576;2023-02-13T07:55:43;103186.47;;;10.01;95.26
18500;BME280;9379;52.134;11.576;2023-02-13T07:58:10;103174.13;;;10.39;93.21
18500;BME280;9379;52.134;11.576;2023-02-13T08:00:37;103181.97;;;9.82;95.65
18500;BME280;9379;52.134;11.576;2023-02-13T08:03:04;103183.59;;;9.86;95.61
18500;BME280;9379;52.134;11.576;2023-02-13T08:05:31;103159.47;;;9.71;95.72
18500;BME280;9379;52.134;11.576;2023-02-13T08:08:00;103160.56;;;10.06;94.81
18500;BME280;9379;52.134;11.576;2023-02-13T08:10:27;103181.47;;;10.34;93.63
18500;BME280;9379;52.134;11.576;2023-02-13T08:13:12;103166.31;;;10.36;92.71
18500;BME280;9379;52.134;11.576;2023-02-13T08:15:40;103171.69;;;10.72;90.95
18500;BME280;9379;52.134;11.576;2023-02-13T08:18:09;103176.56;;;10.04;93.09
18500;BME280;9379;52.134;11.576;2023-02-13T08:20:36;103184.56;;;10.62;91.63
18500;BME280;9379;52.134;11.576;2023-02-13T08:23:05;103162.50;;;10.02;92.38
18500;BME280;9379;52.134;11.576;2023-02-13T08:25:32;103169.81;;;10.36;92.01
18500;BME280;9379;52.134;11.576;2023-02-13T08:27:59;103191.72;;;10.41;92.72
18500;BME280;9379;52.134;11.576;2023-02-13T08:30:27;103197.78;;;10.82;90.86
18500;BME280;9379;52.134;11.576;2023-02-13T08:32:54;103191.34;;;11.05;89.61
18500;BME280;9379;52.134;11.576;2023-02-13T08:35:21;103195.72;;;10.89;89.59
18500;BME280;9379;52.134;11.576;2023-02-13T08:37:51;103200.69;;;10.78;90.06
18500;BME280;9379;52.134;11.576;2023-02-13T08:40:19;103191.59;;;10.63;90.76
18500;BME280;9379;52.134;11.576;2023-02-13T08:42:47;103200.91;;;11.09;89.37
18500;BME280;9379;52.134;11.576;2023-02-13T08:45:14;103194.63;;;11.10;88.53
18500;BME280;9379;52.134;11.576;2023-02-13T08:47:41;103185.34;;;11.19;87.88
18500;BME280;9379;52.134;11.576;2023-02-13T08:50:09;103200.38;;;11.20;88.45
18500;BME280;9379;52.134;11.576;2023-02-13T08:52:36;103208.81;;;11.11;88.85
18500;BME280;9379;52.134;11.576;2023-02-13T08:55:03;103206.41;;;10.50;91.58
18500;BME280;9379;52.134;11.576;2023-02-13T08:57:31;103205.34;;;10.73;91.05
18500;BME280;9379;52.134;11.576;2023-02-13T08:59:58;103200.09;;;10.13;93.82
18500;BME280;9379;52.134;11.576;2023-02-13T09:02:25;103212.81;;;10.65;91.53
18500;BME280;9379;52.134;11.576;2023-02-13T09:04:51;103205.91;;;10.42;92.40
18500;BME280;9379;52.134;11.576;2023-02-13T09:07:18;103208.28;;;9.88;95.35
18500;BME280;9379;52.134;11.576;2023-02-13T09:09:45;103209.41;;;10.23;94.44
18500;BME280;9379;52.134;11.576;2023-02-13T09:12:12;103214.22;;;10.14;93.95
18500;BME280;9379;52.134;11.576;2023-02-13T09:14:40;103198.94;;;10.39;93.12
18500;BME280;9379;52.134;11.576;2023-02-13T09:17:07;103190.31;;;10.14;94.00
18500;BME280;9379;52.134;11.576;2023-02-13T09:19:34;103209.84;;;10.13;94.56
18500;BME280;9379;52.134;11.576;2023-02-13T09:22:01;103187.34;;;10.40;93.52
18500;BME280;9379;52.134;11.576;2023-02-13T09:24:28;103208.59;;;10.42;93.72
18500;BME280;9379;52.134;11.576;2023-02-13T09:26:55;103197.56;;;10.31;94.15
18500;BME280;9379;52.134;11.576;2023-02-13T09:29:22;103206.63;;;10.45;92.98
18500;BME280;9379;52.134;11.576;2023-02-13T09:31:50;103207.66;;;10.43;92.78
18500;BME280;9379;52.134;11.576;2023-02-13T09:34:17;103180.03;;;10.45;93.23
18500;BME280;9379;52.134;11.576;2023-02-13T09:36:44;103202.94;;;10.86;91.18
18500;BME280;9379;52.134;11.576;2023-02-13T09:39:11;103172.88;;;11.02;90.22
18500;BME280;9379;52.134;11.576;2023-02-13T09:41:39;103179.59;;;11.09;89.80
18500;BME280;9379;52.134;11.576;2023-02-13T09:44:12;103214.53;;;10.85;91.02
18500;BME280;9379;52.134;11.576;2023-02-13T09:46:58;103207.88;;;9.98;94.53
18500;BME280;9379;52.134;11.576;2023-02-13T09:49:29;103209.72;;;10.74;92.69
18500;BME280;9379;52.134;11.576;2023-02-13T09:52:00;103216.78;;;11.11;90.89
18500;BME280;9379;52.134;11.576;2023-02-13T09:54:27;103204.91;;;11.01;90.83
18500;BME280;9379;52.134;11.576;2023-02-13T09:56:59;103201.38;;;10.81;91.58
18500;BME280;9379;52.134;11.576;2023-02-13T09:59:49;103206.22;;;10.55;91.89
18500;BME280;9379;52.134;11.576;2023-02-13T10:02:41;103204.53;;;10.52;93.68
18500;BME280;9379;52.134;11.576;2023-02-13T10:05:23;103209.47;;;10.97;91.10
18500;BME280;9379;52.134;11.576;2023-02-13T10:08:05;103207.84;;;10.95;91.09
18500;BME280;9379;52.134;11.576;2023-02-13T10:10:49;103198.28;;;10.91;91.82
18500;BME280;9379;52.134;11.576;2023-02-13T10:13:27;103199.63;;;10.24;93.97
18500;BME280;9379;52.134;11.576;2023-02-13T10:16:01;103220.66;;;10.68;93.41
18500;BME280;9379;52.134;11.576;2023-02-13T10:18:40;103202.91;;;10.68;92.85
18500;BME280;9379;52.134;11.576;2023-02-13T10:21:09;103213.47;;;10.70;93.43
18500;BME280;9379;52.134;11.576;2023-02-13T10:23:39;103212.16;;;10.60;93.25
18500;BME280;9379;52.134;11.576;2023-02-13T10:26:15;103207.59;;;10.99;92.44
18500;BME280;9379;52.134;11.576;2023-02-13T10:28:49;103189.03;;;10.62;93.07
18500;BME280;9379;52.134;11.576;2023-02-13T10:31:33;103189.38;;;10.92;92.18
18500;BME280;9379;52.134;11.576;2023-02-13T10:34:04;103211.06;;;11.37;90.42
18500;BME280;9379;52.134;11.576;2023-02-13T10:36:39;103190.09;;;10.76;92.42
18500;BME280;9379;52.134;11.576;2023-02-13T10:39:22;103184.81;;;11.30;90.74
18500;BME280;9379;52.134;11.576;2023-02-13T10:41:51;103188.19;;;10.97;91.97
18500;BME280;9379;52.134;11.576;2023-02-13T10:44:41;103182.94;;;11.32;89.85
18500;BME280;9379;52.134;11.576;2023-02-13T10:47:22;103188.28;;;11.66;88.75
18500;BME280;9379;52.134;11.576;2023-02-13T10:50:05;103188.41;;;11.29;89.86
18500;BME280;9379;52.134;11.576;2023-02-13T10:52:43;103175.03;;;11.65;88.79
18500;BME280;9379;52.134;11.576;2023-02-13T10:58:17;103178.13;;;11.21;90.76
18500;BME280;9379;52.134;11.576;2023-02-13T11:00:47;103172.91;;;11.54;89.62
18500;BME280;9379;52.134;11.576;2023-02-13T11:03:20;103162.78;;;11.09;91.00
18500;BME280;9379;52.134;11.576;2023-02-13T11:05:51;103160.84;;;11.13;90.91
18500;BME280;9379;52.134;11.576;2023-02-13T11:08:21;103177.84;;;11.27;91.51
18500;BME280;9379;52.134;11.576;2023-02-13T11:10:49;103154.75;;;11.28;90.38
18500;BME280;9379;52.134;11.576;2023-02-13T11:13:18;103166.22;;;11.11;90.96
18500;BME280;9379;52.134;11.576;2023-02-13T11:15:59;103170.72;;;11.62;88.93
18500;BME280;9379;52.134;11.576;2023-02-13T11:18:28;103168.44;;;11.55;88.69
18500;BME280;9379;52.134;11.576;2023-02-13T11:21:03;103169.19;;;11.58;89.42
18500;BME280;9379;52.134;11.576;2023-02-13T11:23:37;103160.75;;;11.66;88.48
18500;BME280;9379;52.134;11.576;2023-02-13T11:26:06;103157.47;;;11.44;89.66
18500;BME280;9379;52.134;11.576;2023-02-13T11:28:36;103140.56;;;11.62;88.71
18500;BME280;9379;52.134;11.576;2023-02-13T11:31:24;103158.81;;;11.87;88.31
18500;BME280;9379;52.134;11.576;2023-02-13T11:33:52;103153.88;;;11.62;88.50
18500;BME280;9379;52.134;11.576;2023-02-13T11:36:25;103154.66;;;11.64;88.62
18500;BME280;9379;52.134;11.576;2023-02-13T11:38:57;103147.13;;;11.72;88.25
18500;BME280;9379;52.134;11.576;2023-02-13T11:41:25;103151.94;;;11.48;89.06
18500;BME280;9379;52.134;11.576;2023-02-13T11:43:53;103151.09;;;11.48;90.30
18500;BME280;9379;52.134;11.576;2023-02-13T11:46:26;103155.66;;;11.79;89.13
18500;BME280;9379;52.134;11.576;2023-02-13T11:48:59;103147.28;;;11.69;89.19
18500;BME280;9379;52.134;11.576;2023-02-13T11:51:42;103152.75;;;12.01;87.89
18500;BME280;9379;52.134;11.576;2023-02-13T11:54:22;103156.84;;;12.23;86.69
18500;BME280;9379;52.134;11.576;2023-02-13T11:56:51;103134.28;;;11.63;87.85
18500;BME280;9379;52.134;11.576;2023-02-13T11:59:21;103158.72;;;12.06;86.77
18500;BME280;9379;52.134;11.576;2023-02-13T12:02:01;103165.78;;;11.89;87.42
18500;BME280;9379;52.134;11.576;2023-02-13T12:04:28;103170.09;;;11.75;88.28
18500;BME280;9379;52.134;11.576;2023-02-13T12:07:02;103170.78;;;11.78;87.41
18500;BME280;9379;52.134;11.576;2023-02-13T12:09:31;103140.09;;;11.88;87.45
18500;BME280;9379;52.134;11.576;2023-02-13T12:11:59;103162.50;;;11.67;87.83
18500;BME280;9379;52.134;11.576;2023-02-13T12:14:30;103160.72;;;11.50;88.55
18500;BME280;9379;52.134;11.576;2023-02-13T12:16:59;103162.97;;;11.92;88.09
18500;BME280;9379;52.134;11.576;2023-02-13T12:19:34;103157.00;;;11.87;87.55
18500;BME280;9379;52.134;11.576;2023-02-13T12:22:21;103142.69;;;11.55;88.58
18500;BME280;9379;52.134;11.576;2023-02-13T12:28:02;103140.66;;;11.60;89.53
18500;BME280;9379;52.134;11.576;2023-02-13T12:36:46;103124.19;;;11.87;88.31
18500;BME280;9379;52.134;11.576;2023-02-13T12:39:24;103134.59;;;11.57;89.52
18500;BME280;9379;52.134;11.576;2023-02-13T12:42:03;103125.22;;;11.84;89.42
18500;BME280;9379;52.134;11.576;2023-02-13T12:44:49;103126.97;;;12.01;87.79
18500;BME280;9379;52.134;11.576;2023-02-13T12:47:21;103115.19;;;11.55;88.22
18500;BME280;9379;52.134;11.576;2023-02-13T12:50:12;103113.34;;;11.90;87.20
18500;BME280;9379;52.134;11.576;2023-02-13T12:52:56;103113.63;;;11.51;88.33
18500;BME280;9379;52.134;11.576;2023-02-13T12:55:51;103094.31;;;11.80;87.80
18500;BME280;9379;52.134;11.576;2023-02-13T12:58:38;103108.63;;;11.78;88.06
18500;BME280;9379;52.134;11.576;2023-02-13T13:01:16;103105.13;;;11.77;88.08
18500;BME280;9379;52.134;11.576;2023-02-13T13:03:53;103107.97;;;11.57;87.97
18500;BME280;9379;52.134;11.576;2023-02-13T13:06:36;103109.66;;;11.75;87.24
18500;BME280;9379;52.134;11.576;2023-02-13T13:09:27;103110.84;;;11.87;87.22
18500;BME280;9379;52.134;11.576;2023-02-13T13:12:21;103108.41;;;12.15;86.35
18500;BME280;9379;52.134;11.576;2023-02-13T13:14:55;103103.41;;;12.09;87.19
18500;BME280;9379;52.134;11.576;2023-02-13T13:17:51;103102.91;;;12.34;85.80
18500;BME280;9379;52.134;11.576;2023-02-13T13:20:35;103105.41;;;12.21;85.41
18500;BME280;9379;52.134;11.576;2023-02-13T13:23:11;103101.03;;;12.36;85.67
18500;BME280;9379;52.134;11.576;2023-02-13T13:25:44;103093.88;;;12.37;85.85
18500;BME280;9379;52.134;11.576;2023-02-13T13:28:19;103105.72;;;12.15;87.09
18500;BME280;9379;52.134;11.576;2023-02-13T13:30:48;103106.13;;;12.41;85.78
18500;BME280;9379;52.134;11.576;2023-02-13T13:33:17;103101.44;;;12.60;85.40
18500;BME280;9379;52.134;11.576;2023-02-13T13:35:51;103083.59;;;11.82;87.28
18500;BME280;9379;52.134;11.576;2023-02-13T13:38:25;103100.50;;;12.14;87.21